createdAt,value
2023-02-20T00:01:30.434Z,4.13
2023-02-20T00:03:57.493Z,3.42
2023-02-20T00:06:24.564Z,3.63
2023-02-20T00:08:51.613Z,4.03
2023-02-20T00:11:19.078Z,3.53
2023-02-20T00:13:47.467Z,3.75
2023-02-20T00:16:14.992Z,3.75
2023-02-20T00:18:42.142Z,3.47
2023-02-20T00:21:09.174Z,3.73
2023-02-20T00:23:36.340Z,4.25
2023-02-20T00:26:03.751Z,3.85
2023-02-20T00:28:31.183Z,3.35
2023-02-20T00:30:58.405Z,4.38
2023-02-20T00:33:25.486Z,4.37
2023-02-20T00:35:52.537Z,4.28
2023-02-20T00:38:19.828Z,4.30
2023-02-20T00:40:47.022Z,4.45
2023-02-20T00:43:14.190Z,4.30
2023-02-20T00:45:41.232Z,4.17
2023-02-20T00:48:08.342Z,4.00
2023-02-20T00:50:35.434Z,4.22
2023-02-20T00:53:03.403Z,4.20
2023-02-20T00:55:30.450Z,3.95
2023-02-20T00:57:57.513Z,3.97
2023-02-20T01:00:27.967Z,3.30
2023-02-20T01:02:56.338Z,3.33
2023-02-20T01:05:23.888Z,3.58
2023-02-20T01:07:50.978Z,3.22
2023-02-20T01:10:18.038Z,2.70
2023-02-20T01:12:45.207Z,2.47
2023-02-20T01:15:14.393Z,1.90
2023-02-20T01:17:41.447Z,2.53
2023-02-20T01:20:08.885Z,1.38
2023-02-20T01:22:36.726Z,1.40
2023-02-20T01:25:04.362Z,1.50
2023-02-20T01:27:31.411Z,1.35
2023-02-20T01:29:58.539Z,1.40
2023-02-20T01:32:25.573Z,1.45
2023-02-20T01:34:52.764Z,1.20
2023-02-20T01:37:20.092Z,1.42
2023-02-20T01:39:48.300Z,1.10
2023-02-20T01:42:20.448Z,1.20
2023-02-20T01:44:47.511Z,1.30
2023-02-20T01:47:22.516Z,0.80
2023-02-20T01:49:59.491Z,1.30
2023-02-20T01:52:32.115Z,1.38
2023-02-20T01:55:04.297Z,1.20
2023-02-20T01:57:34.288Z,1.10
2023-02-20T02:00:14.756Z,1.10
2023-02-20T02:02:45.101Z,1.30
2023-02-20T02:05:12.834Z,1.30
2023-02-20T02:07:40.446Z,1.10
2023-02-20T02:10:10.689Z,1.00
2023-02-20T02:12:38.086Z,1.27
2023-02-20T02:15:16.619Z,0.90
2023-02-20T02:17:48.449Z,1.30
2023-02-20T02:20:40.911Z,1.60
2023-02-20T02:23:22.163Z,1.65
2023-02-20T02:25:55.930Z,2.57
2023-02-20T02:28:47.712Z,2.92
2023-02-20T02:31:51.283Z,3.50
2023-02-20T02:34:41.789Z,4.50
2023-02-20T02:37:18.538Z,3.75
2023-02-20T02:40:01.449Z,4.13
2023-02-20T02:43:11.612Z,4.85
2023-02-20T02:46:04.969Z,4.22
2023-02-20T02:49:04.505Z,4.53
2023-02-20T02:51:36.591Z,4.60
2023-02-20T02:54:06.461Z,4.60
2023-02-20T02:56:39.833Z,4.53
2023-02-20T02:59:08.653Z,4.82
2023-02-20T03:01:43.409Z,4.78
2023-02-20T03:04:12.363Z,5.70
2023-02-20T03:06:42.900Z,5.80
2023-02-20T03:09:34.065Z,5.75
2023-02-20T03:12:02.237Z,5.53
2023-02-20T03:14:57.604Z,5.80
2023-02-20T03:17:33.483Z,5.03
2023-02-20T03:20:08.851Z,4.90
2023-02-20T03:22:39.874Z,4.88
2023-02-20T03:25:13.291Z,4.55
2023-02-20T03:27:45.470Z,4.72
2023-02-20T03:30:17.601Z,4.35
2023-02-20T03:33:05.959Z,4.60
2023-02-20T03:35:53.308Z,3.72
2023-02-20T03:38:41.090Z,3.97
2023-02-20T03:41:27.286Z,4.20
2023-02-20T03:43:55.001Z,4.28
2023-02-20T03:46:23.600Z,3.47
2023-02-20T03:48:58.020Z,3.67
2023-02-20T03:51:25.163Z,4.10
2023-02-20T03:53:52.726Z,3.40
2023-02-20T03:56:30.427Z,3.45
2023-02-20T03:59:18.321Z,3.70
2023-02-20T04:01:47.176Z,3.20
2023-02-20T04:04:21.442Z,3.30
2023-02-20T04:06:50.438Z,3.00
2023-02-20T04:09:22.359Z,3.67
2023-02-20T04:11:53.158Z,3.50
2023-02-20T04:14:22.299Z,3.45
2023-02-20T04:16:52.507Z,3.33
2023-02-20T04:19:19.584Z,2.60
2023-02-20T04:21:50.729Z,3.38
2023-02-20T04:25:00.816Z,3.40
2023-02-20T04:27:27.918Z,2.55
2023-02-20T04:29:55.124Z,3.08
2023-02-20T04:32:22.145Z,3.10
2023-02-20T04:34:49.478Z,2.97
2023-02-20T04:37:19.613Z,2.90
2023-02-20T04:39:47.493Z,2.67
2023-02-20T04:42:14.684Z,3.53
2023-02-20T04:44:42.906Z,3.08
2023-02-20T04:47:15.901Z,3.25
2023-02-20T04:49:43.129Z,3.00
2023-02-20T04:52:10.246Z,2.17
2023-02-20T04:54:37.297Z,2.28
2023-02-20T04:57:05.227Z,2.80
2023-02-20T04:59:32.261Z,2.70
2023-02-20T05:02:01.904Z,2.93
2023-02-20T05:04:29.731Z,2.85
2023-02-20T05:06:57.021Z,2.80
2023-02-20T05:09:24.634Z,2.72
2023-02-20T05:11:52.070Z,2.70
2023-02-20T05:14:20.071Z,2.77
2023-02-20T05:16:47.764Z,2.70
2023-02-20T05:19:15.214Z,3.28
2023-02-20T05:22:02.035Z,2.88
2023-02-20T05:24:29.806Z,3.50
2023-02-20T05:26:56.876Z,3.40
2023-02-20T05:29:24.110Z,2.47
2023-02-20T05:31:51.221Z,4.05
2023-02-20T05:34:20.821Z,3.22
2023-02-20T05:36:48.339Z,3.17
2023-02-20T05:39:15.448Z,3.43
2023-02-20T05:41:42.481Z,3.35
2023-02-20T05:44:09.619Z,3.60
2023-02-20T05:46:43.054Z,2.65
2023-02-20T05:49:10.820Z,2.10
2023-02-20T05:51:38.278Z,4.40
2023-02-20T05:54:05.721Z,4.05
2023-02-20T05:56:33.161Z,3.85
2023-02-20T05:59:01.136Z,3.38
2023-02-20T06:01:30.171Z,3.72
2023-02-20T06:03:57.292Z,4.17
2023-02-20T06:06:24.655Z,4.18
2023-02-20T06:08:51.839Z,3.30
2023-02-20T06:11:18.916Z,3.45
2023-02-20T06:13:46.530Z,4.22
2023-02-20T06:16:14.546Z,3.60
2023-02-20T06:18:42.735Z,3.70
2023-02-20T06:21:10.676Z,3.63
2023-02-20T06:23:38.723Z,4.70
2023-02-20T06:26:07.055Z,3.45
2023-02-20T06:28:34.578Z,3.93
2023-02-20T06:31:02.370Z,4.28
2023-02-20T06:33:30.104Z,4.80
2023-02-20T06:35:57.193Z,4.05
2023-02-20T06:38:24.839Z,3.80
2023-02-20T06:40:52.659Z,4.47
2023-02-20T06:43:20.042Z,4.05
2023-02-20T06:45:47.494Z,3.30
2023-02-20T06:48:15.255Z,3.63
2023-02-20T06:50:42.366Z,4.18
2023-02-20T06:53:09.580Z,3.30
2023-02-20T06:55:36.684Z,3.33
2023-02-20T06:58:03.798Z,4.40
2023-02-20T07:00:32.163Z,3.47
2023-02-20T07:02:59.614Z,2.75
2023-02-20T07:05:26.669Z,3.23
2023-02-20T07:07:53.889Z,3.58
2023-02-20T07:10:22.468Z,3.92
2023-02-20T07:12:49.544Z,3.70
2023-02-20T07:15:18.417Z,3.35
2023-02-20T07:17:46.496Z,5.20
2023-02-20T07:20:16.419Z,4.65
2023-02-20T07:22:51.315Z,4.40
2023-02-20T07:25:18.388Z,4.63
2023-02-20T07:27:45.429Z,4.80
2023-02-20T07:30:12.826Z,4.67
2023-02-20T07:32:39.946Z,5.13
2023-02-20T07:35:09.512Z,4.45
2023-02-20T07:37:36.741Z,3.92
2023-02-20T07:40:04.173Z,4.05
2023-02-20T07:42:32.697Z,4.07
2023-02-20T07:44:59.764Z,4.90
2023-02-20T07:47:27.068Z,3.58
2023-02-20T07:49:55.121Z,3.42
2023-02-20T07:52:22.137Z,3.30
2023-02-20T07:54:49.176Z,4.07
2023-02-20T07:57:16.343Z,3.78
2023-02-20T07:59:43.383Z,3.33
2023-02-20T08:02:10.581Z,3.90
2023-02-20T08:04:37.621Z,3.20
2023-02-20T08:07:06.907Z,3.20
2023-02-20T08:09:33.995Z,3.33
2023-02-20T08:12:01.032Z,3.17
2023-02-20T08:14:28.591Z,3.03
2023-02-20T08:16:55.748Z,3.25
2023-02-20T08:19:22.877Z,3.37
2023-02-20T08:21:50.004Z,2.53
2023-02-20T08:24:17.094Z,2.47
2023-02-20T08:26:45.656Z,2.40
2023-02-20T08:29:13.455Z,1.90
2023-02-20T08:31:40.675Z,3.00
2023-02-20T08:34:08.277Z,3.00
2023-02-20T08:36:35.355Z,2.00
2023-02-20T08:39:03.502Z,1.95
2023-02-20T08:41:31.098Z,2.17
2023-02-20T08:43:58.387Z,2.37
2023-02-20T08:46:25.478Z,2.40
2023-02-20T08:48:52.571Z,2.42
2023-02-20T08:51:20.911Z,2.83
2023-02-20T08:53:47.997Z,2.90
2023-02-20T08:56:18.647Z,2.20
2023-02-20T08:58:47.024Z,3.05
2023-02-20T09:01:14.080Z,2.58
2023-02-20T09:03:43.054Z,2.75
2023-02-20T09:06:10.342Z,2.00
2023-02-20T09:08:37.808Z,2.73
2023-02-20T09:11:05.929Z,2.65
2023-02-20T09:13:33.084Z,2.47
2023-02-20T09:16:00.120Z,2.58
2023-02-20T09:18:27.183Z,2.40
2023-02-20T09:20:54.263Z,2.27
2023-02-20T09:23:24.257Z,2.50
2023-02-20T09:25:51.400Z,1.92
2023-02-20T09:28:19.718Z,2.10
2023-02-20T09:30:48.715Z,2.15
2023-02-20T09:33:15.833Z,2.73
2023-02-20T09:35:42.850Z,2.17
2023-02-20T09:38:09.922Z,1.98
2023-02-20T09:40:37.025Z,2.03
2023-02-20T09:43:22.434Z,2.33
2023-02-20T09:46:18.073Z,2.47
2023-02-20T09:49:21.884Z,2.38
2023-02-20T09:51:56.238Z,1.90
2023-02-20T09:54:28.633Z,2.13
2023-02-20T09:57:01.676Z,1.50
2023-02-20T09:59:33.592Z,1.70
2023-02-20T10:02:01.887Z,1.25
2023-02-20T10:04:34.411Z,1.70
2023-02-20T10:07:26.052Z,1.92
2023-02-20T10:09:53.799Z,1.70
2023-02-20T10:12:39.700Z,1.43
2023-02-20T10:15:22.609Z,1.60
2023-02-20T10:18:07.724Z,1.63
2023-02-20T10:20:45.468Z,1.10
2023-02-20T10:23:15.658Z,1.40
2023-02-20T10:25:50.274Z,1.30
2023-02-20T10:28:19.055Z,1.40
2023-02-20T10:30:52.465Z,1.35
2023-02-20T10:33:31.474Z,1.48
2023-02-20T10:36:07.031Z,1.38
2023-02-20T10:38:39.557Z,1.30
2023-02-20T10:41:13.415Z,1.40
2023-02-20T10:44:00.592Z,2.58
2023-02-20T10:46:48.964Z,1.20
2023-02-20T10:49:32.363Z,1.10
2023-02-20T10:52:01.352Z,2.00
2023-02-20T10:54:38.654Z,1.10
2023-02-20T10:57:16.940Z,1.35
2023-02-20T10:59:52.405Z,1.52
2023-02-20T11:02:22.928Z,1.67
2023-02-20T11:05:01.723Z,1.43
2023-02-20T11:07:28.910Z,1.20
2023-02-20T11:09:55.955Z,1.17
2023-02-20T11:12:32.280Z,1.02
2023-02-20T11:15:21.081Z,1.30
2023-02-20T11:17:49.904Z,1.43
2023-02-20T11:20:32.302Z,1.00
2023-02-20T11:23:01.536Z,1.00
2023-02-20T11:25:29.668Z,0.88
2023-02-20T11:28:00.673Z,0.93
2023-02-20T11:30:32.054Z,0.90
2023-02-20T11:33:01.488Z,0.68
2023-02-20T11:35:34.135Z,0.75
2023-02-20T11:38:29.222Z,0.75
2023-02-20T11:41:01.770Z,0.80
2023-02-20T11:44:00.144Z,0.90
2023-02-20T11:46:28.309Z,0.70
2023-02-20T11:49:06.517Z,0.68
2023-02-20T11:51:45.730Z,1.05
2023-02-20T11:54:24.395Z,0.60
2023-02-20T11:57:16.393Z,0.87
2023-02-20T11:59:45.932Z,0.50
2023-02-20T12:02:23.387Z,0.57
2023-02-20T12:05:10.749Z,0.60
2023-02-20T12:07:53.749Z,0.63
2023-02-20T12:10:35.712Z,0.70
2023-02-20T12:13:04.364Z,0.43
2023-02-20T12:15:31.496Z,1.00
2023-02-20T12:18:15.061Z,0.90
2023-02-20T12:20:48.764Z,0.90
2023-02-20T12:23:40.649Z,1.10
2023-02-20T12:26:10.680Z,0.77
2023-02-20T12:28:59.734Z,0.98
2023-02-20T12:31:48.659Z,0.60
2023-02-20T12:34:31.045Z,1.00
2023-02-20T12:37:05.194Z,1.37
2023-02-20T12:39:54.998Z,0.88
2023-02-20T12:42:43.083Z,1.20
2023-02-20T12:45:50.727Z,0.70
2023-02-20T12:48:29.534Z,0.80
2023-02-20T12:51:16.005Z,0.93
2023-02-20T12:53:57.849Z,0.80
2023-02-20T12:56:52.886Z,1.33
2023-02-20T12:59:35.876Z,0.93
2023-02-20T13:02:16.876Z,0.65
2023-02-20T13:04:51.308Z,0.93
2023-02-20T13:07:21.628Z,1.50
2023-02-20T13:10:05.244Z,0.93
2023-02-20T13:12:32.414Z,0.90
2023-02-20T13:15:30.635Z,0.90
2023-02-20T13:18:04.878Z,0.83
2023-02-20T13:20:35.373Z,0.80
2023-02-20T13:23:06.360Z,0.80
2023-02-20T13:25:35.352Z,0.90
2023-02-20T13:28:14.004Z,0.93
2023-02-20T13:30:41.313Z,0.90
2023-02-20T13:33:19.073Z,1.05
2023-02-20T13:35:50.749Z,0.93
2023-02-20T13:38:20.993Z,1.10
2023-02-20T13:40:57.121Z,0.70
2023-02-20T13:43:27.379Z,1.10
2023-02-20T13:46:00.494Z,0.30
2023-02-20T13:48:30.239Z,0.82
2023-02-20T13:51:16.101Z,0.93
2023-02-20T13:53:51.333Z,0.70
2023-02-20T13:56:23.820Z,0.40
2023-02-20T13:58:51.937Z,0.73
2023-02-20T14:01:19.065Z,0.38
2023-02-20T14:03:46.320Z,0.60
2023-02-20T14:06:18.792Z,0.82
2023-02-20T14:08:47.721Z,0.60
2023-02-20T14:11:24.344Z,0.32
2023-02-20T14:13:54.322Z,0.40
2023-02-20T14:16:33.938Z,0.35
2023-02-20T14:19:04.030Z,0.40
2023-02-20T14:21:33.510Z,0.70
2023-02-20T14:24:19.050Z,0.57
2023-02-20T14:26:46.567Z,0.52
2023-02-20T14:29:29.531Z,0.80
2023-02-20T14:31:58.198Z,0.50
2023-02-20T14:34:33.445Z,0.50
2023-02-20T14:37:24.551Z,0.70
2023-02-20T14:40:03.951Z,0.90
2023-02-20T14:42:31.051Z,0.80
2023-02-20T14:45:01.346Z,0.90
2023-02-20T14:47:28.670Z,0.47
2023-02-20T14:50:16.435Z,1.00
2023-02-20T14:52:45.421Z,0.50
2023-02-20T14:55:17.664Z,1.40
2023-02-20T14:57:44.767Z,0.47
2023-02-20T15:00:24.054Z,1.63
2023-02-20T15:02:55.284Z,0.70
2023-02-20T15:05:34.347Z,0.80
2023-02-20T15:08:12.222Z,0.80
2023-02-20T15:10:41.776Z,1.02
2023-02-20T15:13:11.222Z,0.90
2023-02-20T15:15:43.527Z,0.70
2023-02-20T15:18:17.657Z,0.80
2023-02-20T15:20:49.173Z,0.70
2023-02-20T15:23:16.347Z,0.80
2023-02-20T15:25:44.250Z,1.23
2023-02-20T15:28:24.543Z,1.00
2023-02-20T15:31:10.023Z,1.70
2023-02-20T15:33:41.706Z,1.13
2023-02-20T15:36:13.581Z,0.95
2023-02-20T15:38:41.306Z,1.50
2023-02-20T15:41:08.420Z,1.40
2023-02-20T15:43:45.924Z,1.10
2023-02-20T15:46:15.939Z,1.00
2023-02-20T15:48:43.228Z,2.00
2023-02-20T15:51:11.714Z,1.13
2023-02-20T15:53:39.130Z,0.90
2023-02-20T15:56:07.169Z,1.42
2023-02-20T15:58:37.346Z,1.05
2023-02-20T16:01:07.503Z,0.95
2023-02-20T16:03:49.250Z,1.30
2023-02-20T16:06:20.570Z,0.98
2023-02-20T16:08:48.869Z,1.27
2023-02-20T16:11:16.367Z,1.30
2023-02-20T16:13:45.487Z,1.00
2023-02-20T16:16:24.017Z,1.73
2023-02-20T16:18:55.535Z,1.20
2023-02-20T16:21:23.363Z,0.98
2023-02-20T16:23:50.937Z,0.80
2023-02-20T16:26:20.492Z,1.08
2023-02-20T16:28:53.181Z,1.40
2023-02-20T16:31:20.395Z,0.95
2023-02-20T16:33:49.359Z,1.15
2023-02-20T16:36:24.383Z,1.00
2023-02-20T16:38:52.159Z,1.17
2023-02-20T16:41:19.225Z,1.07
2023-02-20T16:43:46.270Z,0.98
2023-02-20T16:46:13.870Z,1.00
2023-02-20T16:48:43.418Z,1.27
2023-02-20T16:51:11.522Z,0.90
2023-02-20T16:53:38.633Z,1.00
2023-02-20T16:56:05.907Z,0.75
2023-02-20T16:58:32.991Z,0.90
2023-02-20T17:01:00.114Z,1.08
2023-02-20T17:03:30.036Z,0.90
2023-02-20T17:06:00.330Z,1.00
2023-02-20T17:08:27.604Z,1.00
2023-02-20T17:10:54.731Z,1.02
2023-02-20T17:13:21.796Z,2.80
2023-02-20T17:15:49.255Z,1.35
2023-02-20T17:18:16.337Z,1.00
2023-02-20T17:20:43.564Z,0.75
2023-02-20T17:23:10.634Z,1.30
2023-02-20T17:25:37.724Z,1.00
2023-02-20T17:28:05.560Z,1.33
2023-02-20T17:30:32.734Z,0.77
2023-02-20T17:32:59.906Z,1.00
2023-02-20T17:35:26.950Z,0.80
2023-02-20T17:37:53.977Z,0.88
2023-02-20T17:40:21.125Z,0.88
2023-02-20T17:42:48.236Z,1.33
2023-02-20T17:45:16.146Z,1.00
2023-02-20T17:47:43.318Z,1.02
2023-02-20T17:50:10.816Z,1.42
2023-02-20T17:52:38.068Z,1.20
2023-02-20T17:55:05.492Z,0.90
2023-02-20T17:57:33.259Z,1.13
2023-02-20T18:00:00.795Z,1.10
2023-02-20T18:02:27.886Z,2.83
2023-02-20T18:04:55.864Z,1.70
2023-02-20T18:07:23.099Z,1.30
2023-02-20T18:09:50.425Z,1.20
2023-02-20T18:12:17.578Z,1.13
2023-02-20T18:14:45.725Z,1.30
2023-02-20T18:17:13.398Z,1.00
2023-02-20T18:19:40.587Z,1.20
2023-02-20T18:22:07.725Z,1.08
2023-02-20T18:24:34.797Z,1.58
2023-02-20T18:27:01.910Z,1.25
2023-02-20T18:29:30.191Z,1.40
2023-02-20T18:31:58.052Z,1.33
2023-02-20T18:34:27.201Z,1.00
2023-02-20T18:36:54.852Z,0.90
2023-02-20T18:39:22.085Z,1.40
2023-02-20T18:41:54.220Z,1.40
2023-02-20T18:44:23.219Z,1.20
2023-02-20T18:46:50.673Z,1.77
2023-02-20T18:49:17.829Z,1.55
2023-02-20T18:51:44.964Z,1.63
2023-02-20T18:54:18.372Z,1.65
2023-02-20T18:56:47.465Z,2.37
2023-02-20T18:59:15.109Z,1.30
2023-02-20T19:01:42.945Z,1.50
2023-02-20T19:04:11.973Z,1.75
2023-02-20T19:06:44.089Z,1.70
2023-02-20T19:09:14.865Z,1.27
2023-02-20T19:11:41.965Z,1.30
2023-02-20T19:14:09.180Z,1.20
2023-02-20T19:16:36.449Z,1.25
2023-02-20T19:19:03.569Z,1.95
2023-02-20T19:21:30.636Z,1.40
2023-02-20T19:23:57.683Z,1.50
2023-02-20T19:26:24.735Z,1.30
2023-02-20T19:28:51.979Z,1.60
2023-02-20T19:31:19.157Z,1.48
2023-02-20T19:33:48.796Z,1.60
2023-02-20T19:36:15.920Z,1.40
2023-02-20T19:38:42.992Z,1.50
2023-02-20T19:41:14.171Z,1.58
2023-02-20T19:43:42.054Z,1.08
2023-02-20T19:46:19.913Z,1.50
2023-02-20T19:48:47.252Z,1.48
2023-02-20T19:51:16.044Z,1.80
2023-02-20T19:53:43.093Z,4.40
2023-02-20T19:56:10.657Z,2.30
2023-02-20T19:58:40.303Z,2.00
2023-02-20T20:01:17.751Z,1.48
2023-02-20T20:03:48.402Z,1.42
2023-02-20T20:06:17.107Z,2.05
2023-02-20T20:09:09.302Z,1.60
2023-02-20T20:11:31.442Z,1.90
2023-02-20T20:13:58.545Z,1.75
2023-02-20T20:16:25.620Z,1.40
2023-02-20T20:18:53.522Z,2.20
2023-02-20T20:21:21.606Z,1.20
2023-02-20T20:23:48.857Z,3.17
2023-02-20T20:26:16.169Z,2.40
2023-02-20T20:28:43.615Z,1.40
2023-02-20T20:31:10.787Z,1.27
2023-02-20T20:33:37.865Z,1.17
2023-02-20T20:36:07.231Z,1.53
2023-02-20T20:38:34.425Z,1.33
2023-02-20T20:41:01.514Z,1.13
2023-02-20T20:43:28.640Z,1.05
2023-02-20T20:45:55.911Z,0.90
2023-02-20T20:48:23.002Z,1.03
2023-02-20T20:50:50.353Z,1.05
2023-02-20T20:53:18.152Z,1.02
2023-02-20T20:55:45.458Z,1.00
2023-02-20T20:58:12.645Z,0.70
2023-02-20T21:00:39.684Z,1.20
2023-02-20T21:03:10.518Z,1.30
2023-02-20T21:05:37.752Z,1.05
2023-02-20T21:08:06.417Z,1.15
2023-02-20T21:10:33.955Z,0.90
2023-02-20T21:13:01.409Z,0.80
2023-02-20T21:15:29.046Z,1.17
2023-02-20T21:17:56.535Z,0.80
2023-02-20T21:20:25.933Z,1.20
2023-02-20T21:22:53.112Z,1.33
2023-02-20T21:25:21.907Z,1.20
2023-02-20T21:27:50.171Z,0.90
2023-02-20T21:30:17.984Z,1.23
2023-02-20T21:32:45.593Z,1.27
2023-02-20T21:35:14.317Z,1.45
2023-02-20T21:37:41.394Z,1.00
2023-02-20T21:40:09.122Z,1.17
2023-02-20T21:42:54.943Z,0.85
2023-02-20T21:45:22.859Z,0.88
2023-02-20T21:47:49.909Z,0.90
2023-02-20T21:50:18.415Z,1.30
2023-02-20T21:52:46.187Z,1.30
2023-02-20T21:55:14.970Z,1.30
2023-02-20T21:57:41.998Z,1.50
2023-02-20T22:00:10.492Z,1.40
2023-02-20T22:02:38.276Z,1.83
2023-02-20T22:05:06.483Z,1.80
2023-02-20T22:07:53.360Z,1.48
2023-02-20T22:10:39.114Z,1.52
2023-02-20T22:13:25.010Z,1.58
2023-02-20T22:16:10.961Z,1.53
2023-02-20T22:18:56.791Z,1.83
2023-02-20T22:21:44.051Z,2.10
2023-02-20T22:24:38.126Z,4.90
2023-02-20T22:27:27.802Z,3.45
2023-02-20T22:30:13.937Z,1.80
2023-02-20T22:32:59.756Z,1.20
2023-02-20T22:35:45.541Z,1.52
2023-02-20T22:38:31.241Z,2.20
2023-02-20T22:41:17.157Z,2.50
2023-02-20T22:44:03.028Z,2.40
2023-02-20T22:46:48.871Z,2.00
2023-02-20T22:49:34.534Z,2.00
2023-02-20T22:52:20.285Z,2.35
2023-02-20T22:55:06.581Z,1.95
2023-02-20T22:57:53.154Z,1.87
2023-02-20T23:00:39.080Z,1.80
2023-02-20T23:03:24.751Z,1.55
2023-02-20T23:06:19.661Z,2.28
2023-02-20T23:09:07.727Z,1.80
2023-02-20T23:11:55.138Z,2.33
2023-02-20T23:14:41.107Z,2.40
2023-02-20T23:17:35.509Z,1.98
2023-02-20T23:20:28.227Z,2.38
2023-02-20T23:23:13.710Z,1.92
2023-02-20T23:25:59.166Z,1.90
2023-02-20T23:28:45.140Z,2.38
2023-02-20T23:31:31.229Z,1.75
2023-02-20T23:34:16.988Z,1.33
2023-02-20T23:37:10.836Z,1.95
2023-02-20T23:39:56.699Z,1.10
2023-02-20T23:42:42.181Z,1.40
2023-02-20T23:45:28.438Z,1.50
2023-02-20T23:48:14.014Z,1.80
2023-02-20T23:50:59.807Z,1.92
2023-02-20T23:53:46.176Z,1.40
2023-02-20T23:56:32.765Z,1.55
2023-02-20T23:59:18.635Z,1.00
